createdAt,value
2023-09-25T00:01:18.420Z,94684.41
2023-09-25T00:03:45.638Z,94688.28
2023-09-25T00:06:12.681Z,94693.81
2023-09-25T00:08:39.669Z,94685.53
2023-09-25T00:11:06.743Z,94687.31
2023-09-25T00:13:33.776Z,94693.13
2023-09-25T00:16:03.713Z,94693.75
2023-09-25T00:18:30.941Z,94696.31
2023-09-25T00:20:57.937Z,94690.59
2023-09-25T00:23:24.933Z,94692.88
2023-09-25T00:25:52.241Z,94695.00
2023-09-25T00:28:19.184Z,94699.13
2023-09-25T00:30:46.257Z,94690.69
2023-09-25T00:33:13.924Z,94687.66
2023-09-25T00:35:43.638Z,94682.66
2023-09-25T00:38:11.802Z,94686.28
2023-09-25T00:40:39.674Z,94692.88
2023-09-25T00:43:07.240Z,94683.72
2023-09-25T00:45:38.501Z,94696.22
2023-09-25T00:48:06.646Z,94690.28
2023-09-25T00:50:35.259Z,94693.13
2023-09-25T00:53:10.362Z,94692.28
2023-09-25T00:55:37.487Z,94699.75
2023-09-25T00:58:07.389Z,94695.59
2023-09-25T01:00:36.757Z,94691.63
2023-09-25T01:03:04.528Z,94688.28
2023-09-25T01:05:34.055Z,94690.94
2023-09-25T01:08:00.995Z,94687.41
2023-09-25T01:10:27.938Z,94679.06
2023-09-25T01:12:54.912Z,94683.88
2023-09-25T01:15:22.792Z,94687.22
2023-09-25T01:17:49.926Z,94695.28
2023-09-25T01:20:19.002Z,94686.94
2023-09-25T01:22:48.220Z,94686.28
2023-09-25T01:25:17.475Z,94681.25
2023-09-25T01:27:46.236Z,94684.06
2023-09-25T01:30:15.185Z,94682.53
2023-09-25T01:32:45.699Z,94684.94
2023-09-25T01:35:16.588Z,94679.47
2023-09-25T01:37:43.667Z,94679.66
2023-09-25T01:40:18.992Z,94685.47
2023-09-25T01:42:48.850Z,94694.78
2023-09-25T01:45:18.784Z,94685.41
2023-09-25T01:47:54.356Z,94688.56
2023-09-25T01:50:29.357Z,94687.91
2023-09-25T01:52:58.467Z,94690.38
2023-09-25T01:55:29.970Z,94684.19
2023-09-25T01:57:57.169Z,94686.50
2023-09-25T02:00:27.195Z,94688.09
2023-09-25T02:02:54.318Z,94684.25
2023-09-25T02:05:21.701Z,94691.72
2023-09-25T02:07:49.869Z,94693.63
2023-09-25T02:10:16.916Z,94702.53
2023-09-25T02:12:44.882Z,94700.06
2023-09-25T02:15:12.627Z,94699.13
2023-09-25T02:17:39.765Z,94711.59
2023-09-25T02:20:21.700Z,94711.28
2023-09-25T02:22:50.084Z,94711.22
2023-09-25T02:25:18.156Z,94713.16
2023-09-25T02:27:47.077Z,94724.53
2023-09-25T02:30:15.144Z,94713.72
2023-09-25T02:32:45.133Z,94720.66
2023-09-25T02:35:13.105Z,94720.78
2023-09-25T02:37:42.631Z,94723.44
2023-09-25T02:40:15.045Z,94729.28
2023-09-25T02:42:46.855Z,94725.69
2023-09-25T02:45:14.988Z,94726.75
2023-09-25T02:47:42.060Z,94728.41
2023-09-25T02:50:10.176Z,94726.97
2023-09-25T02:52:37.765Z,94722.09
2023-09-25T02:55:05.499Z,94729.72
2023-09-25T02:57:32.448Z,94736.03
2023-09-25T02:59:59.637Z,94742.38
2023-09-25T03:02:27.524Z,94747.56
2023-09-25T03:04:55.557Z,94751.13
2023-09-25T03:07:22.785Z,94751.50
2023-09-25T03:09:50.305Z,94753.56
2023-09-25T03:12:17.457Z,94748.47
2023-09-25T03:14:44.684Z,94757.75
2023-09-25T03:17:11.735Z,94758.91
2023-09-25T03:19:39.825Z,94758.06
2023-09-25T03:22:06.812Z,94763.09
2023-09-25T03:24:36.530Z,94765.81
2023-09-25T03:27:03.644Z,94774.00
2023-09-25T03:29:30.662Z,94770.91
2023-09-25T03:31:57.822Z,94766.53
2023-09-25T03:34:27.993Z,94773.16
2023-09-25T03:36:55.051Z,94767.69
2023-09-25T03:39:21.989Z,94776.06
2023-09-25T03:41:48.983Z,94770.53
2023-09-25T03:44:15.961Z,94773.63
2023-09-25T03:46:43.016Z,94777.16
2023-09-25T03:49:09.968Z,94776.84
2023-09-25T03:51:37.016Z,94775.28
2023-09-25T03:54:04.471Z,94780.03
2023-09-25T03:56:31.803Z,94774.91
2023-09-25T03:58:58.773Z,94771.41
2023-09-25T04:01:26.825Z,94773.69
2023-09-25T04:03:54.019Z,94765.06
2023-09-25T04:06:21.323Z,94765.78
2023-09-25T04:08:48.815Z,94764.22
2023-09-25T04:11:16.102Z,94774.41
2023-09-25T04:13:43.133Z,94774.91
2023-09-25T04:16:13.598Z,94773.94
2023-09-25T04:18:40.997Z,94781.06
2023-09-25T04:21:08.261Z,94785.72
2023-09-25T04:23:35.344Z,94789.38
2023-09-25T04:26:02.532Z,94794.13
2023-09-25T04:28:29.804Z,94801.72
2023-09-25T04:30:58.612Z,94796.13
2023-09-25T04:33:26.373Z,94798.84
2023-09-25T04:36:00.003Z,94803.31
2023-09-25T04:38:27.533Z,94800.69
2023-09-25T04:40:56.101Z,94801.41
2023-09-25T04:43:23.674Z,94813.13
2023-09-25T04:45:53.550Z,94797.81
2023-09-25T04:48:20.715Z,94809.00
2023-09-25T04:50:47.895Z,94813.25
2023-09-25T04:53:15.082Z,94806.53
2023-09-25T04:55:43.109Z,94813.59
2023-09-25T04:58:10.625Z,94816.66
2023-09-25T05:00:37.791Z,94812.88
2023-09-25T05:03:06.237Z,94815.25
2023-09-25T05:05:34.440Z,94810.59
2023-09-25T05:08:01.651Z,94811.75
2023-09-25T05:10:31.009Z,94818.00
2023-09-25T05:12:58.263Z,94824.16
2023-09-25T05:15:25.613Z,94819.06
2023-09-25T05:17:55.928Z,94823.81
2023-09-25T05:20:25.507Z,94826.97
2023-09-25T05:22:54.478Z,94820.72
2023-09-25T05:25:23.347Z,94834.72
2023-09-25T05:27:53.127Z,94844.75
2023-09-25T05:30:27.251Z,94834.66
2023-09-25T05:32:54.914Z,94837.91
2023-09-25T05:35:26.255Z,94841.13
2023-09-25T05:37:53.245Z,94841.84
2023-09-25T05:40:20.396Z,94847.81
2023-09-25T05:42:49.590Z,94850.56
2023-09-25T05:45:18.749Z,94856.44
2023-09-25T05:47:46.531Z,94860.34
2023-09-25T05:50:14.359Z,94850.47
2023-09-25T05:52:42.067Z,94859.47
2023-09-25T05:55:10.242Z,94864.31
2023-09-25T05:57:38.079Z,94859.91
2023-09-25T06:00:14.229Z,94864.50
2023-09-25T06:02:43.271Z,94860.75
2023-09-25T06:05:14.229Z,94868.72
2023-09-25T06:07:42.119Z,94868.00
2023-09-25T06:10:09.977Z,94859.84
2023-09-25T06:12:37.336Z,94863.09
2023-09-25T06:15:11.360Z,94857.50
2023-09-25T06:17:39.829Z,94859.66
2023-09-25T06:20:14.836Z,94866.34
2023-09-25T06:22:43.056Z,94858.69
2023-09-25T06:25:13.202Z,94859.72
2023-09-25T06:27:41.725Z,94865.19
2023-09-25T06:30:10.928Z,94862.94
2023-09-25T06:32:40.347Z,94867.25
2023-09-25T06:35:08.068Z,94877.63
2023-09-25T06:37:37.911Z,94877.09
2023-09-25T06:40:17.353Z,94888.03
2023-09-25T06:42:47.559Z,94886.91
2023-09-25T06:45:23.036Z,94894.47
2023-09-25T06:47:50.822Z,94890.75
2023-09-25T06:50:18.406Z,94900.63
2023-09-25T06:52:45.471Z,94895.81
2023-09-25T06:55:20.435Z,94891.13
2023-09-25T06:57:48.362Z,94900.56
2023-09-25T07:00:15.691Z,94890.63
2023-09-25T07:02:43.959Z,94899.28
2023-09-25T07:05:11.590Z,94898.66
2023-09-25T07:07:39.587Z,94908.09
2023-09-25T07:10:10.819Z,94912.34
2023-09-25T07:12:38.556Z,94903.09
2023-09-25T07:15:06.507Z,94907.34
2023-09-25T07:17:33.504Z,94903.09
2023-09-25T07:20:00.628Z,94905.13
2023-09-25T07:22:29.452Z,94899.25
2023-09-25T07:24:57.440Z,94899.97
2023-09-25T07:27:24.562Z,94903.47
2023-09-25T07:29:51.688Z,94906.09
2023-09-25T07:32:19.205Z,94905.25
2023-09-25T07:34:46.723Z,94906.47
2023-09-25T07:37:14.097Z,94903.22
2023-09-25T07:39:43.360Z,94906.06
2023-09-25T07:42:11.313Z,94909.34
2023-09-25T07:44:39.630Z,94907.44
2023-09-25T07:47:13.949Z,94913.94
2023-09-25T07:49:42.873Z,94906.50
2023-09-25T07:52:17.446Z,94897.53
2023-09-25T07:54:47.107Z,94911.84
2023-09-25T07:57:17.950Z,94911.56
2023-09-25T07:59:45.248Z,94915.09
2023-09-25T08:02:35.067Z,94906.34
2023-09-25T08:05:04.883Z,94899.59
2023-09-25T08:07:32.354Z,94909.69
2023-09-25T08:10:01.468Z,94906.94
2023-09-25T08:12:28.597Z,94904.69
2023-09-25T08:14:56.358Z,94905.06
2023-09-25T08:17:23.503Z,94909.38
2023-09-25T08:19:53.957Z,94894.44
2023-09-25T08:22:22.770Z,94896.06
2023-09-25T08:24:53.506Z,94901.13
2023-09-25T08:27:22.105Z,94900.91
2023-09-25T08:29:49.280Z,94894.69
2023-09-25T08:32:16.297Z,94902.91
2023-09-25T08:34:43.357Z,94900.81
2023-09-25T08:37:10.378Z,94902.78
2023-09-25T08:39:37.328Z,94904.81
2023-09-25T08:42:05.346Z,94908.81
2023-09-25T08:44:33.064Z,94907.25
2023-09-25T08:47:00.506Z,94904.63
2023-09-25T08:49:27.945Z,94908.31
2023-09-25T08:51:55.664Z,94894.13
2023-09-25T08:54:24.182Z,94898.00
2023-09-25T08:56:51.517Z,94906.66
2023-09-25T08:59:20.364Z,94898.78
2023-09-25T09:01:48.035Z,94914.53
2023-09-25T09:04:17.458Z,94902.50
2023-09-25T09:06:44.650Z,94913.22
2023-09-25T09:09:14.002Z,94896.44
2023-09-25T09:11:50.506Z,94895.38
2023-09-25T09:14:45.230Z,94889.13
2023-09-25T09:17:14.224Z,94892.69
2023-09-25T09:20:08.621Z,94892.28
2023-09-25T09:22:36.388Z,94891.47
2023-09-25T09:25:03.717Z,94899.69
2023-09-25T09:27:30.962Z,94896.19
2023-09-25T09:29:58.700Z,94904.84
2023-09-25T09:32:28.117Z,94904.84
2023-09-25T09:34:55.105Z,94895.91
2023-09-25T09:37:23.197Z,94902.97
2023-09-25T09:39:53.953Z,94895.50
2023-09-25T09:42:22.623Z,94901.78
2023-09-25T09:44:49.834Z,94893.19
2023-09-25T09:47:22.007Z,94898.03
2023-09-25T09:49:49.770Z,94894.88
2023-09-25T09:52:20.991Z,94901.19
2023-09-25T09:54:49.042Z,94898.06
2023-09-25T09:57:16.770Z,94893.34
2023-09-25T09:59:43.805Z,94895.72
2023-09-25T10:02:11.454Z,94911.91
2023-09-25T10:04:38.911Z,94902.06
2023-09-25T10:07:11.996Z,94898.13
2023-09-25T10:09:57.926Z,94907.97
2023-09-25T10:12:50.341Z,94901.28
2023-09-25T10:15:29.544Z,94898.94
2023-09-25T10:17:58.448Z,94907.59
2023-09-25T10:20:37.793Z,94891.06
2023-09-25T10:23:27.067Z,94907.59
2023-09-25T10:25:58.883Z,94892.22
2023-09-25T10:28:34.362Z,94893.41
2023-09-25T10:31:03.795Z,94886.31
2023-09-25T10:33:34.710Z,94885.91
2023-09-25T10:36:03.370Z,94877.53
2023-09-25T10:38:33.338Z,94882.25
2023-09-25T10:41:06.260Z,94883.81
2023-09-25T10:43:34.713Z,94869.59
2023-09-25T10:46:03.739Z,94884.22
2023-09-25T10:48:34.537Z,94886.53
2023-09-25T10:51:01.781Z,94881.38
2023-09-25T10:53:28.823Z,94876.59
2023-09-25T10:55:55.870Z,94880.47
2023-09-25T10:58:22.979Z,94882.94
2023-09-25T11:00:53.259Z,94886.16
2023-09-25T11:03:20.939Z,94883.84
2023-09-25T11:05:49.359Z,94892.09
2023-09-25T11:08:17.845Z,94894.88
2023-09-25T11:10:47.047Z,94893.38
2023-09-25T11:13:14.622Z,94893.38
2023-09-25T11:15:43.078Z,94883.19
2023-09-25T11:18:13.951Z,94890.25
2023-09-25T11:20:42.647Z,94888.69
2023-09-25T11:25:44.001Z,94884.75
2023-09-25T11:28:15.242Z,94896.94
2023-09-25T11:30:44.030Z,94894.53
2023-09-25T11:33:11.492Z,94892.50
2023-09-25T11:35:39.666Z,94885.78
2023-09-25T11:38:26.850Z,94882.25
2023-09-25T11:40:54.575Z,94879.50
2023-09-25T11:43:25.746Z,94881.50
2023-09-25T11:45:54.010Z,94893.38
2023-09-25T11:48:21.496Z,94889.78
2023-09-25T11:50:50.015Z,94883.78
2023-09-25T11:53:17.118Z,94885.31
2023-09-25T11:55:44.594Z,94878.09
2023-09-25T11:58:11.756Z,94874.44
2023-09-25T12:00:39.334Z,94872.34
2023-09-25T12:03:09.941Z,94874.69
2023-09-25T12:05:37.892Z,94872.25
2023-09-25T12:08:07.342Z,94869.44
2023-09-25T12:10:40.860Z,94872.94
2023-09-25T12:13:09.050Z,94872.31
2023-09-25T12:15:37.238Z,94873.94
2023-09-25T12:18:05.823Z,94872.34
2023-09-25T12:20:43.459Z,94874.34
2023-09-25T12:23:10.759Z,94881.63
2023-09-25T12:25:37.993Z,94874.53
2023-09-25T12:28:06.510Z,94863.72
2023-09-25T12:30:34.218Z,94871.81
2023-09-25T12:33:02.546Z,94862.50
2023-09-25T12:35:29.706Z,94865.69
2023-09-25T12:37:57.572Z,94871.78
2023-09-25T12:40:25.577Z,94862.78
2023-09-25T12:42:56.073Z,94866.38
2023-09-25T12:45:24.362Z,94862.75
2023-09-25T12:47:52.249Z,94863.00
2023-09-25T12:50:19.877Z,94851.25
2023-09-25T12:52:48.003Z,94868.22
2023-09-25T12:55:15.614Z,94863.63
2023-09-25T12:57:43.278Z,94858.44
2023-09-25T13:00:11.025Z,94859.47
2023-09-25T13:02:38.160Z,94853.03
2023-09-25T13:05:10.444Z,94861.91
2023-09-25T13:07:37.947Z,94854.66
2023-09-25T13:10:07.525Z,94853.34
2023-09-25T13:12:34.658Z,94858.03
2023-09-25T13:15:04.164Z,94853.31
2023-09-25T13:17:31.923Z,94848.50
2023-09-25T13:20:00.772Z,94847.44
2023-09-25T13:22:36.589Z,94850.47
2023-09-25T13:25:06.103Z,94842.06
2023-09-25T13:27:33.633Z,94838.50
2023-09-25T13:30:00.976Z,94832.00
2023-09-25T13:32:31.522Z,94844.56
2023-09-25T13:34:58.593Z,94834.69
2023-09-25T13:37:25.650Z,94830.63
2023-09-25T13:39:54.517Z,94837.41
2023-09-25T13:42:21.777Z,94830.06
2023-09-25T13:44:48.810Z,94832.03
2023-09-25T13:47:16.050Z,94837.38
2023-09-25T13:49:45.409Z,94846.94
2023-09-25T13:52:12.950Z,94845.28
2023-09-25T13:54:40.398Z,94843.03
2023-09-25T13:57:07.780Z,94843.53
2023-09-25T13:59:35.003Z,94850.53
2023-09-25T14:02:02.070Z,94838.19
2023-09-25T14:04:31.812Z,94835.09
2023-09-25T14:06:59.024Z,94841.66
2023-09-25T14:09:26.265Z,94844.00
2023-09-25T14:11:54.728Z,94836.19
2023-09-25T14:14:23.245Z,94850.81
2023-09-25T14:16:51.047Z,94848.34
2023-09-25T14:19:18.015Z,94855.34
2023-09-25T14:21:45.117Z,94848.69
2023-09-25T14:24:12.083Z,94843.66
2023-09-25T14:26:39.835Z,94846.59
2023-09-25T14:29:07.244Z,94844.69
2023-09-25T14:31:41.962Z,94850.50
2023-09-25T14:34:09.058Z,94840.19
2023-09-25T14:36:36.252Z,94835.34
2023-09-25T14:39:04.114Z,94847.66
2023-09-25T14:41:31.142Z,94844.34
2023-09-25T14:43:58.121Z,94840.97
2023-09-25T14:46:25.311Z,94836.63
2023-09-25T14:48:52.538Z,94837.50
2023-09-25T14:51:19.584Z,94831.72
2023-09-25T14:53:46.740Z,94830.94
2023-09-25T14:56:14.048Z,94841.16
2023-09-25T14:58:41.796Z,94830.38
2023-09-25T15:01:11.817Z,94832.41
2023-09-25T15:03:39.076Z,94832.38
2023-09-25T15:06:07.270Z,94833.59
2023-09-25T15:08:34.280Z,94833.00
2023-09-25T15:11:01.417Z,94832.13
2023-09-25T15:13:28.528Z,94827.94
2023-09-25T15:15:55.746Z,94837.50
2023-09-25T15:18:23.329Z,94836.84
2023-09-25T15:20:50.569Z,94842.44
2023-09-25T15:23:17.895Z,94843.97
2023-09-25T15:25:44.921Z,94841.72
2023-09-25T15:28:12.357Z,94845.19
2023-09-25T15:30:39.612Z,94836.34
2023-09-25T15:33:06.707Z,94838.94
2023-09-25T15:35:33.778Z,94836.06
2023-09-25T15:38:00.860Z,94837.19
2023-09-25T15:40:28.265Z,94844.13
2023-09-25T15:42:55.437Z,94850.44
2023-09-25T15:45:22.454Z,94851.66
2023-09-25T15:47:49.519Z,94846.44
2023-09-25T15:50:16.576Z,94854.19
2023-09-25T15:52:43.576Z,94853.78
2023-09-25T15:55:11.057Z,94845.66
2023-09-25T15:57:38.149Z,94844.94
2023-09-25T16:00:07.811Z,94849.81
2023-09-25T16:02:35.395Z,94840.84
2023-09-25T16:05:03.672Z,94845.25
2023-09-25T16:07:31.092Z,94847.31
2023-09-25T16:09:58.194Z,94853.22
2023-09-25T16:12:26.190Z,94847.72
2023-09-25T16:14:55.884Z,94843.78
2023-09-25T16:17:23.026Z,94849.31
2023-09-25T16:19:50.045Z,94850.09
2023-09-25T16:22:17.194Z,94861.06
2023-09-25T16:24:44.411Z,94848.88
2023-09-25T16:27:11.495Z,94851.59
2023-09-25T16:29:38.509Z,94853.19
2023-09-25T16:32:05.958Z,94854.34
2023-09-25T16:34:32.909Z,94849.97
2023-09-25T16:36:59.946Z,94856.25
2023-09-25T16:39:30.329Z,94853.13
2023-09-25T16:41:59.822Z,94852.38
2023-09-25T16:44:27.498Z,94859.81
2023-09-25T16:46:54.611Z,94866.47
2023-09-25T16:49:22.613Z,94869.53
2023-09-25T16:51:49.866Z,94869.47
2023-09-25T16:54:16.800Z,94870.66
2023-09-25T16:56:43.784Z,94865.53
2023-09-25T16:59:11.995Z,94875.72
2023-09-25T17:01:39.033Z,94876.91
2023-09-25T17:04:06.477Z,94867.03
2023-09-25T17:06:33.465Z,94875.63
2023-09-25T17:09:00.557Z,94881.06
2023-09-25T17:11:33.708Z,94871.97
2023-09-25T17:14:01.621Z,94881.72
2023-09-25T17:16:32.159Z,94883.25
2023-09-25T17:18:59.909Z,94883.25
2023-09-25T17:21:27.134Z,94882.13
2023-09-25T17:23:54.591Z,94892.66
2023-09-25T17:26:21.980Z,94884.41
2023-09-25T17:28:51.252Z,94892.63
2023-09-25T17:31:18.465Z,94884.00
2023-09-25T17:33:46.044Z,94888.59
2023-09-25T17:36:13.116Z,94891.28
2023-09-25T17:38:40.150Z,94889.34
2023-09-25T17:41:11.462Z,94894.44
2023-09-25T17:43:39.014Z,94899.16
2023-09-25T17:46:07.375Z,94897.16
2023-09-25T17:48:36.095Z,94914.44
2023-09-25T17:51:03.782Z,94902.69
2023-09-25T17:53:30.900Z,94914.50
2023-09-25T17:55:58.246Z,94925.91
2023-09-25T17:58:30.190Z,94929.81
2023-09-25T18:00:59.972Z,94922.75
2023-09-25T18:03:27.976Z,94932.97
2023-09-25T18:05:55.088Z,94928.56
2023-09-25T18:08:22.136Z,94925.44
2023-09-25T18:10:49.084Z,94935.63
2023-09-25T18:13:18.157Z,94934.75
2023-09-25T18:15:47.243Z,94932.00
2023-09-25T18:18:14.598Z,94928.44
2023-09-25T18:20:41.703Z,94938.56
2023-09-25T18:23:08.738Z,94937.34
2023-09-25T18:25:38.997Z,94928.28
2023-09-25T18:28:06.351Z,94937.63
2023-09-25T18:30:33.564Z,94937.31
2023-09-25T18:33:02.334Z,94943.28
2023-09-25T18:35:29.563Z,94939.69
2023-09-25T18:37:56.596Z,94929.81
2023-09-25T18:40:23.677Z,94930.56
2023-09-25T18:42:50.716Z,94928.97
2023-09-25T18:45:17.756Z,94934.47
2023-09-25T18:47:45.194Z,94928.63
2023-09-25T18:50:12.225Z,94940.31
2023-09-25T18:52:39.259Z,94945.03
2023-09-25T18:55:07.438Z,94940.69
2023-09-25T18:57:34.545Z,94943.75
2023-09-25T19:00:01.694Z,94934.34
2023-09-25T19:02:28.678Z,94943.72
2023-09-25T19:04:56.258Z,94938.22
2023-09-25T19:07:23.513Z,94937.03
2023-09-25T19:09:53.754Z,94940.22
2023-09-25T19:12:20.915Z,94949.97
2023-09-25T19:14:48.052Z,94935.09
2023-09-25T19:17:15.026Z,94941.25
2023-09-25T19:19:42.087Z,94941.94
2023-09-25T19:22:10.084Z,94935.66
2023-09-25T19:24:37.418Z,94934.47
2023-09-25T19:27:05.611Z,94947.16
2023-09-25T19:29:32.818Z,94942.72
2023-09-25T19:32:00.206Z,94937.59
2023-09-25T19:34:27.415Z,94943.44
2023-09-25T19:36:54.484Z,94939.09
2023-09-25T19:39:21.548Z,94946.94
2023-09-25T19:41:48.657Z,94935.94
2023-09-25T19:44:15.698Z,94938.16
2023-09-25T19:46:42.843Z,94931.78
2023-09-25T19:49:09.883Z,94922.72
2023-09-25T19:51:39.750Z,94931.00
2023-09-25T19:54:07.955Z,94932.03
2023-09-25T19:56:34.901Z,94926.59
2023-09-25T19:59:01.952Z,94933.38
2023-09-25T20:01:29.583Z,94923.03
2023-09-25T20:03:56.847Z,94935.50
2023-09-25T20:06:24.179Z,94938.91
2023-09-25T20:08:51.289Z,94931.00
2023-09-25T20:11:18.383Z,94933.66
2023-09-25T20:13:45.649Z,94933.16
2023-09-25T20:16:12.892Z,94927.75
2023-09-25T20:18:39.933Z,94931.09
2023-09-25T20:21:06.978Z,94926.56
2023-09-25T20:23:34.385Z,94929.91
2023-09-25T20:26:06.729Z,94920.38
2023-09-25T20:28:33.677Z,94923.53
2023-09-25T20:31:00.722Z,94932.78
2023-09-25T20:33:28.068Z,94931.94
2023-09-25T20:35:56.057Z,94931.94
2023-09-25T20:38:25.218Z,94927.94
2023-09-25T20:40:52.551Z,94931.00
2023-09-25T20:43:19.964Z,94932.66
2023-09-25T20:45:47.035Z,94923.53
2023-09-25T20:48:13.978Z,94923.72
2023-09-25T20:50:41.419Z,94933.53
2023-09-25T20:53:08.406Z,94932.16
2023-09-25T20:55:35.813Z,94926.09
2023-09-25T20:58:04.623Z,94927.69
2023-09-25T21:00:32.019Z,94920.84
2023-09-25T21:02:59.518Z,94924.53
2023-09-25T21:05:27.582Z,94928.38
2023-09-25T21:07:56.001Z,94933.06
2023-09-25T21:10:23.398Z,94936.84
2023-09-25T21:12:50.539Z,94932.50
2023-09-25T21:15:17.733Z,94935.97
2023-09-25T21:17:44.816Z,94939.75
2023-09-25T21:20:12.737Z,94942.06
2023-09-25T21:22:39.829Z,94932.69
2023-09-25T21:25:10.880Z,94930.38
2023-09-25T21:27:38.765Z,94928.19
2023-09-25T21:30:07.713Z,94926.19
2023-09-25T21:32:36.416Z,94936.16
2023-09-25T21:35:04.436Z,94939.44
2023-09-25T21:37:31.458Z,94931.53
2023-09-25T21:39:58.499Z,94936.47
2023-09-25T21:42:25.702Z,94934.81
2023-09-25T21:44:52.877Z,94940.97
2023-09-25T21:47:20.728Z,94926.84
2023-09-25T21:49:47.757Z,94934.69
2023-09-25T21:52:14.733Z,94931.66
2023-09-25T21:54:42.795Z,94938.28
2023-09-25T21:57:09.879Z,94933.91
2023-09-25T21:59:36.838Z,94930.69
2023-09-25T22:02:05.534Z,94932.31
2023-09-25T22:04:32.657Z,94920.59
2023-09-25T22:07:00.816Z,94928.16
2023-09-25T22:09:27.950Z,94926.47
2023-09-25T22:11:56.112Z,94929.31
2023-09-25T22:14:23.404Z,94925.50
2023-09-25T22:16:50.978Z,94928.03
2023-09-25T22:19:19.800Z,94924.94
2023-09-25T22:21:48.403Z,94934.91
2023-09-25T22:24:16.478Z,94933.28
2023-09-25T22:26:43.939Z,94933.19
2023-09-25T22:29:11.207Z,94935.09
2023-09-25T22:31:43.334Z,94930.34
2023-09-25T22:34:10.386Z,94935.44
2023-09-25T22:36:37.311Z,94940.13
2023-09-25T22:39:08.206Z,94945.59
2023-09-25T22:41:35.026Z,94944.75
2023-09-25T22:44:01.970Z,94937.59
2023-09-25T22:46:29.008Z,94939.84
2023-09-25T22:48:56.070Z,94944.75
2023-09-25T22:51:23.083Z,94948.47
2023-09-25T22:53:50.155Z,94955.09
2023-09-25T22:56:17.215Z,94953.88
2023-09-25T22:58:44.160Z,94945.16
2023-09-25T23:01:11.465Z,94947.53
2023-09-25T23:03:38.641Z,94943.41
2023-09-25T23:06:05.749Z,94938.53
2023-09-25T23:08:32.878Z,94950.44
2023-09-25T23:10:59.902Z,94948.44
2023-09-25T23:13:27.096Z,94946.84
2023-09-25T23:15:54.248Z,94941.44
2023-09-25T23:18:21.681Z,94941.81
2023-09-25T23:20:52.744Z,94939.25
2023-09-25T23:23:19.726Z,94934.34
2023-09-25T23:25:46.810Z,94945.25
2023-09-25T23:28:14.544Z,94946.06
2023-09-25T23:30:41.768Z,94940.50
2023-09-25T23:33:51.883Z,94937.34
2023-09-25T23:36:19.635Z,94942.63
2023-09-25T23:38:46.678Z,94935.47
2023-09-25T23:41:13.640Z,94945.63
2023-09-25T23:43:40.991Z,94938.56
2023-09-25T23:46:08.066Z,94936.13
2023-09-25T23:48:37.603Z,94941.44
2023-09-25T23:51:05.014Z,94945.41
2023-09-25T23:53:34.027Z,94935.50
2023-09-25T23:56:05.081Z,94941.69
2023-09-25T23:58:32.952Z,94945.56
